createdAt,value
2018-05-09T00:01:08.741Z,3.50
2018-05-09T00:03:37.797Z,3.60
2018-05-09T00:06:06.080Z,4.07
2018-05-09T00:08:34.430Z,4.23
2018-05-09T00:11:03.499Z,4.40
2018-05-09T00:13:31.837Z,4.23
2018-05-09T00:16:00.190Z,3.77
2018-05-09T00:18:28.563Z,3.70
2018-05-09T00:20:56.853Z,5.40
2018-05-09T00:23:25.181Z,4.60
2018-05-09T00:25:54.236Z,4.53
2018-05-09T00:28:22.569Z,4.80
2018-05-09T00:30:50.910Z,4.67
2018-05-09T00:33:19.317Z,3.83
2018-05-09T00:35:47.605Z,4.07
2018-05-09T00:38:15.887Z,5.60
2018-05-09T00:40:44.513Z,4.70
2018-05-09T00:43:12.797Z,3.87
2018-05-09T00:45:41.113Z,4.73
2018-05-09T00:48:10.293Z,4.00
2018-05-09T00:50:38.581Z,4.40
2018-05-09T00:53:07.179Z,4.60
2018-05-09T00:55:35.483Z,4.23
2018-05-09T00:58:04.533Z,4.50
2018-05-09T01:00:33.279Z,4.67
2018-05-09T01:05:36.301Z,4.50
2018-05-09T01:08:04.641Z,4.70
2018-05-09T01:10:32.977Z,5.13
2018-05-09T01:13:01.369Z,5.07
2018-05-09T01:15:29.661Z,5.47
2018-05-09T01:17:58.000Z,4.83
2018-05-09T01:20:26.285Z,5.30
2018-05-09T01:22:54.566Z,4.80
2018-05-09T01:25:23.740Z,5.63
2018-05-09T01:27:51.987Z,5.60
2018-05-09T01:30:20.317Z,5.93
2018-05-09T01:32:48.601Z,5.43
2018-05-09T01:35:17.001Z,4.23
2018-05-09T01:37:45.284Z,4.90
2018-05-09T01:40:14.097Z,6.00
2018-05-09T01:42:42.579Z,4.60
2018-05-09T01:45:10.873Z,5.00
2018-05-09T01:47:39.269Z,5.20
2018-05-09T01:50:07.611Z,5.07
2018-05-09T01:52:35.894Z,5.70
2018-05-09T01:55:04.211Z,5.20
2018-05-09T01:57:32.550Z,5.50
2018-05-09T02:00:01.699Z,5.23
2018-05-09T02:02:30.333Z,5.80
2018-05-09T02:04:58.621Z,5.70
2018-05-09T02:07:26.901Z,5.87
2018-05-09T02:09:55.246Z,5.67
2018-05-09T02:12:23.594Z,5.57
2018-05-09T02:14:51.896Z,7.50
2018-05-09T02:17:20.230Z,6.67
2018-05-09T02:19:48.517Z,6.33
2018-05-09T02:22:16.869Z,6.57
2018-05-09T02:24:45.209Z,7.67
2018-05-09T02:27:13.493Z,6.23
2018-05-09T02:29:41.782Z,4.83
2018-05-09T02:32:10.125Z,6.70
2018-05-09T02:34:38.409Z,7.63
2018-05-09T02:37:06.757Z,6.90
2018-05-09T02:39:35.049Z,5.57
2018-05-09T02:42:03.633Z,6.00
2018-05-09T02:44:31.917Z,6.40
2018-05-09T02:47:00.257Z,5.57
2018-05-09T02:49:28.599Z,5.97
2018-05-09T02:51:56.941Z,5.20
2018-05-09T02:54:25.221Z,5.80
2018-05-09T02:56:53.557Z,5.23
2018-05-09T02:59:21.903Z,6.00
2018-05-09T03:01:50.189Z,5.93
2018-05-09T03:04:18.578Z,6.00
2018-05-09T03:06:46.862Z,6.73
2018-05-09T03:09:15.206Z,7.07
2018-05-09T03:11:43.545Z,6.90
2018-05-09T03:14:11.946Z,5.57
2018-05-09T03:16:40.289Z,5.93
2018-05-09T03:19:08.572Z,5.93
2018-05-09T03:21:36.918Z,7.93
2018-05-09T03:24:05.240Z,7.07
2018-05-09T03:26:33.529Z,7.67
2018-05-09T03:29:01.874Z,6.23
2018-05-09T03:31:30.153Z,5.57
2018-05-09T03:33:58.513Z,7.70
2018-05-09T03:36:26.949Z,6.47
2018-05-09T03:38:55.245Z,7.20
2018-05-09T03:41:23.533Z,8.40
2018-05-09T03:43:51.936Z,6.97
2018-05-09T03:46:20.274Z,7.33
2018-05-09T03:48:48.609Z,5.80
2018-05-09T03:51:16.901Z,7.07
2018-05-09T03:53:45.241Z,8.80
2018-05-09T03:56:13.529Z,7.07
2018-05-09T03:58:41.869Z,8.00
2018-05-09T04:01:10.213Z,6.83
2018-05-09T04:03:50.423Z,6.80
2018-05-09T04:06:30.685Z,6.80
2018-05-09T04:09:10.781Z,6.70
2018-05-09T04:11:39.134Z,7.20
2018-05-09T04:14:07.480Z,6.73
2018-05-09T04:16:36.592Z,6.37
2018-05-09T04:19:05.646Z,7.30
2018-05-09T04:21:33.929Z,6.67
2018-05-09T04:24:02.276Z,5.53
2018-05-09T04:26:31.321Z,7.33
2018-05-09T04:28:59.604Z,6.70
2018-05-09T04:31:27.973Z,6.30
2018-05-09T04:33:56.253Z,6.23
2018-05-09T04:36:24.554Z,6.87
2018-05-09T04:38:52.889Z,6.60
2018-05-09T04:41:21.212Z,7.87
2018-05-09T04:43:50.310Z,6.70
2018-05-09T04:46:18.665Z,7.57
2018-05-09T04:48:46.948Z,6.63
2018-05-09T04:51:15.237Z,7.87
2018-05-09T04:53:43.577Z,7.07
2018-05-09T04:56:12.745Z,7.73
2018-05-09T04:58:41.037Z,7.47
2018-05-09T05:01:09.377Z,6.80
2018-05-09T05:03:38.425Z,7.20
2018-05-09T05:06:06.857Z,8.03
2018-05-09T05:08:36.050Z,7.73
2018-05-09T05:11:04.337Z,6.80
2018-05-09T05:13:32.818Z,7.30
2018-05-09T05:16:01.095Z,6.40
2018-05-09T05:18:29.453Z,7.40
2018-05-09T05:20:57.734Z,8.60
2018-05-09T05:23:26.789Z,8.10
2018-05-09T05:25:55.449Z,6.90
2018-05-09T05:28:23.730Z,7.87
2018-05-09T05:30:52.017Z,7.00
2018-05-09T05:33:21.142Z,7.13
2018-05-09T05:35:49.431Z,8.00
2018-05-09T05:38:17.765Z,8.27
2018-05-09T05:40:46.109Z,8.67
2018-05-09T05:43:14.469Z,7.40
2018-05-09T05:45:42.880Z,7.20
2018-05-09T05:48:11.936Z,7.90
2018-05-09T05:50:40.276Z,8.23
2018-05-09T05:53:08.636Z,10.43
2018-05-09T05:55:38.485Z,9.00
2018-05-09T05:58:07.597Z,10.13
2018-05-09T06:00:36.152Z,9.70
2018-05-09T06:03:04.440Z,10.00
2018-05-09T06:05:32.741Z,10.00
2018-05-09T06:08:01.139Z,9.73
2018-05-09T06:10:29.517Z,8.70
2018-05-09T06:12:57.874Z,9.60
2018-05-09T06:15:26.166Z,8.83
2018-05-09T06:17:54.821Z,9.03
2018-05-09T06:20:23.881Z,9.57
2018-05-09T06:22:52.171Z,8.60
2018-05-09T06:25:20.893Z,9.50
2018-05-09T06:27:49.182Z,9.13
2018-05-09T06:30:17.479Z,10.07
2018-05-09T06:32:47.330Z,10.57
2018-05-09T06:35:16.461Z,8.53
2018-05-09T06:37:44.819Z,8.83
2018-05-09T06:40:13.173Z,8.67
2018-05-09T06:42:41.520Z,8.00
2018-05-09T06:45:09.868Z,8.80
2018-05-09T06:47:38.165Z,8.97
2018-05-09T06:50:08.036Z,8.13
2018-05-09T06:52:36.326Z,8.80
2018-05-09T06:55:04.669Z,8.63
2018-05-09T06:57:32.963Z,8.70
2018-05-09T07:00:01.379Z,8.60
2018-05-09T07:02:30.455Z,8.60
2018-05-09T07:04:58.805Z,9.43
2018-05-09T07:07:27.150Z,8.40
2018-05-09T07:09:56.202Z,8.77
2018-05-09T07:12:24.548Z,8.57
2018-05-09T07:14:53.657Z,7.57
2018-05-09T07:17:22.781Z,8.40
2018-05-09T07:19:51.903Z,8.37
2018-05-09T07:22:20.193Z,8.30
2018-05-09T07:24:48.493Z,7.00
2018-05-09T07:27:16.833Z,6.47
2018-05-09T07:29:45.185Z,6.57
2018-05-09T07:32:13.465Z,6.03
2018-05-09T07:34:41.820Z,5.93
2018-05-09T07:37:10.917Z,6.67
2018-05-09T07:39:39.977Z,5.67
2018-05-09T07:42:08.419Z,6.27
2018-05-09T07:44:36.704Z,5.93
2018-05-09T07:47:04.981Z,6.30
2018-05-09T07:49:33.335Z,6.37
2018-05-09T07:52:01.690Z,5.87
2018-05-09T07:54:30.813Z,5.70
2018-05-09T07:56:59.113Z,5.43
2018-05-09T07:59:27.407Z,6.10
2018-05-09T08:01:55.751Z,6.10
2018-05-09T08:04:24.034Z,5.33
2018-05-09T08:06:52.621Z,5.50
2018-05-09T08:09:21.013Z,5.37
2018-05-09T08:11:49.297Z,5.20
2018-05-09T08:14:17.653Z,5.00
2018-05-09T08:16:47.635Z,5.93
2018-05-09T08:19:16.692Z,4.60
2018-05-09T08:21:45.029Z,5.20
2018-05-09T08:24:13.373Z,4.70
2018-05-09T08:26:41.652Z,5.07
2018-05-09T08:29:10.014Z,4.73
2018-05-09T08:31:39.196Z,5.43
2018-05-09T08:34:07.485Z,5.93
2018-05-09T08:36:35.871Z,4.50
2018-05-09T08:39:04.129Z,4.73
2018-05-09T08:41:32.433Z,6.20
2018-05-09T08:44:00.875Z,5.00
2018-05-09T08:46:29.109Z,5.60
2018-05-09T08:48:57.453Z,4.47
2018-05-09T08:51:26.509Z,4.70
2018-05-09T08:53:54.893Z,5.40
2018-05-09T08:56:23.181Z,3.20
2018-05-09T08:58:51.469Z,4.70
2018-05-09T09:01:19.809Z,4.03
2018-05-09T09:03:48.167Z,3.37
2018-05-09T09:06:16.449Z,3.13
2018-05-09T09:08:44.741Z,3.53
2018-05-09T09:11:13.092Z,2.73
2018-05-09T09:13:42.205Z,2.80
2018-05-09T09:16:10.572Z,2.33
2018-05-09T09:18:38.946Z,2.47
2018-05-09T09:21:07.218Z,2.17
2018-05-09T09:23:35.581Z,2.57
2018-05-09T09:26:03.866Z,2.70
2018-05-09T09:28:32.153Z,2.40
2018-05-09T09:31:00.897Z,2.13
2018-05-09T09:33:29.301Z,2.17
2018-05-09T09:35:57.585Z,1.87
2018-05-09T09:38:25.949Z,1.90
2018-05-09T09:40:54.232Z,2.13
2018-05-09T09:43:22.541Z,2.97
2018-05-09T09:45:50.892Z,2.27
2018-05-09T09:48:19.188Z,2.50
2018-05-09T09:50:47.722Z,2.80
2018-05-09T09:53:16.129Z,3.07
2018-05-09T09:55:44.413Z,2.37
2018-05-09T09:58:12.696Z,1.67
2018-05-09T10:00:41.805Z,2.33
2018-05-09T10:03:10.089Z,2.90
2018-05-09T10:05:38.433Z,2.30
2018-05-09T10:08:06.820Z,2.30
2018-05-09T10:10:35.101Z,2.17
2018-05-09T10:13:04.167Z,2.70
2018-05-09T10:15:32.616Z,2.93
2018-05-09T10:18:00.957Z,2.47
2018-05-09T10:20:29.353Z,3.13
2018-05-09T10:22:57.697Z,2.90
2018-05-09T10:25:25.977Z,2.87
2018-05-09T10:27:54.273Z,3.60
2018-05-09T10:30:22.609Z,2.83
2018-05-09T10:32:50.984Z,3.57
2018-05-09T10:35:19.265Z,3.00
2018-05-09T10:37:47.563Z,3.00
2018-05-09T10:40:16.286Z,3.87
2018-05-09T10:42:44.568Z,2.90
2018-05-09T10:45:14.361Z,2.13
2018-05-09T10:47:42.707Z,3.00
2018-05-09T10:50:11.755Z,2.87
2018-05-09T10:52:40.041Z,2.90
2018-05-09T10:55:09.269Z,3.40
2018-05-09T10:57:37.561Z,3.30
2018-05-09T11:00:05.916Z,3.17
2018-05-09T11:02:34.219Z,2.90
2018-05-09T11:05:02.839Z,2.60
2018-05-09T11:07:31.841Z,2.70
2018-05-09T11:10:00.189Z,3.30
2018-05-09T11:12:28.469Z,3.30
2018-05-09T11:14:57.521Z,2.93
2018-05-09T11:17:25.866Z,2.53
2018-05-09T11:19:54.930Z,2.40
2018-05-09T11:22:23.230Z,2.67
2018-05-09T11:24:51.569Z,2.83
2018-05-09T11:27:20.217Z,2.13
2018-05-09T11:29:48.610Z,2.77
2018-05-09T11:32:16.891Z,2.90
2018-05-09T11:34:45.275Z,2.70
2018-05-09T11:37:13.606Z,2.50
2018-05-09T11:39:42.705Z,2.40
2018-05-09T11:42:10.989Z,3.00
2018-05-09T11:44:39.347Z,2.87
2018-05-09T11:47:07.753Z,2.70
2018-05-09T11:49:36.043Z,3.13
2018-05-09T11:52:04.392Z,2.80
2018-05-09T11:54:32.830Z,2.37
2018-05-09T11:57:01.169Z,3.13
2018-05-09T11:59:29.521Z,2.80
2018-05-09T12:01:57.817Z,2.43
2018-05-09T12:04:26.131Z,2.27
2018-05-09T12:06:54.492Z,1.97
2018-05-09T12:09:22.817Z,2.67
2018-05-09T12:11:51.099Z,2.60
2018-05-09T12:14:19.456Z,2.90
2018-05-09T12:16:47.734Z,2.67
2018-05-09T12:19:16.032Z,2.70
2018-05-09T12:21:44.422Z,3.10
2018-05-09T12:24:13.073Z,3.07
2018-05-09T12:26:41.411Z,3.70
2018-05-09T12:29:09.685Z,3.43
2018-05-09T12:31:38.021Z,2.53
2018-05-09T12:34:07.137Z,2.80
2018-05-09T12:36:35.425Z,2.90
2018-05-09T12:39:03.858Z,2.53
2018-05-09T12:41:32.559Z,2.97
2018-05-09T12:44:00.904Z,2.83
2018-05-09T12:46:29.189Z,2.50
2018-05-09T12:48:57.542Z,2.93
2018-05-09T12:51:25.833Z,3.07
2018-05-09T12:53:54.122Z,2.90
2018-05-09T12:56:22.476Z,2.60
2018-05-09T12:58:50.762Z,2.60
2018-05-09T13:01:19.080Z,3.00
2018-05-09T13:03:47.429Z,2.70
2018-05-09T13:06:15.713Z,2.70
2018-05-09T13:08:44.061Z,2.70
2018-05-09T13:11:12.751Z,2.90
2018-05-09T13:13:41.153Z,2.60
2018-05-09T13:16:09.846Z,3.10
2018-05-09T13:18:38.138Z,2.97
2018-05-09T13:21:06.578Z,3.07
2018-05-09T13:23:34.948Z,3.07
2018-05-09T13:26:03.476Z,2.93
2018-05-09T13:28:32.587Z,2.93
2018-05-09T13:31:00.880Z,2.63
2018-05-09T13:33:29.301Z,3.13
2018-05-09T13:35:58.358Z,3.70
2018-05-09T13:38:26.642Z,2.60
2018-05-09T13:40:54.975Z,2.77
2018-05-09T13:43:23.260Z,2.53
2018-05-09T13:45:51.595Z,2.87
2018-05-09T13:48:19.962Z,3.93
2018-05-09T13:50:48.250Z,3.03
2018-05-09T13:53:16.586Z,2.90
2018-05-09T13:55:44.909Z,3.20
2018-05-09T13:58:13.245Z,3.00
2018-05-09T14:00:42.373Z,3.43
2018-05-09T14:03:11.445Z,3.33
2018-05-09T14:05:39.809Z,3.03
2018-05-09T14:08:08.103Z,3.10
2018-05-09T14:10:38.402Z,3.10
2018-05-09T14:13:06.709Z,3.00
2018-05-09T14:15:35.036Z,3.67
2018-05-09T14:18:03.386Z,2.60
2018-05-09T14:20:31.727Z,3.43
2018-05-09T14:23:00.027Z,2.70
2018-05-09T14:25:28.501Z,3.33
2018-05-09T14:27:56.790Z,2.57
2018-05-09T14:30:25.069Z,3.30
2018-05-09T14:32:54.182Z,2.70
2018-05-09T14:35:23.232Z,2.50
2018-05-09T14:37:51.976Z,2.80
2018-05-09T14:40:20.302Z,2.37
2018-05-09T14:42:48.584Z,2.70
2018-05-09T14:45:16.937Z,2.83
2018-05-09T14:47:45.240Z,2.70
2018-05-09T14:50:19.200Z,3.07
2018-05-09T14:52:48.929Z,3.47
2018-05-09T14:55:19.242Z,3.00
2018-05-09T14:57:48.289Z,3.00
2018-05-09T15:00:16.663Z,3.20
2018-05-09T15:02:44.925Z,2.37
2018-05-09T15:05:13.981Z,3.37
2018-05-09T15:07:42.265Z,2.50
2018-05-09T15:10:10.609Z,3.20
2018-05-09T15:12:38.893Z,2.80
2018-05-09T15:15:07.241Z,2.70
2018-05-09T15:17:35.557Z,2.40
2018-05-09T15:20:03.897Z,3.10
2018-05-09T15:22:32.341Z,2.43
2018-05-09T15:25:00.621Z,3.13
2018-05-09T15:27:29.328Z,2.43
2018-05-09T15:29:57.608Z,2.83
2018-05-09T15:32:26.000Z,2.40
2018-05-09T15:34:54.392Z,2.70
2018-05-09T15:37:22.688Z,3.57
2018-05-09T15:39:50.969Z,3.20
2018-05-09T15:42:19.357Z,2.57
2018-05-09T15:44:47.670Z,3.50
2018-05-09T15:47:15.931Z,2.63
2018-05-09T15:49:44.277Z,2.53
2018-05-09T15:52:14.570Z,2.20
2018-05-09T15:54:43.268Z,2.53
2018-05-09T15:57:13.495Z,2.90
2018-05-09T15:59:42.585Z,3.77
2018-05-09T16:02:11.035Z,2.63
2018-05-09T16:04:40.081Z,2.63
2018-05-09T16:07:08.699Z,3.60
2018-05-09T16:09:37.194Z,2.73
2018-05-09T16:12:05.548Z,2.73
2018-05-09T16:14:33.877Z,2.90
2018-05-09T16:17:02.165Z,2.53
2018-05-09T16:19:30.509Z,3.10
2018-05-09T16:21:58.797Z,3.13
2018-05-09T16:24:27.152Z,3.00
2018-05-09T16:26:55.481Z,3.10
2018-05-09T16:29:23.766Z,2.20
2018-05-09T16:31:52.109Z,2.80
2018-05-09T16:34:20.396Z,2.70
2018-05-09T16:36:48.812Z,3.10
2018-05-09T16:39:17.087Z,3.30
2018-05-09T16:41:45.481Z,3.27
2018-05-09T16:44:13.829Z,2.90
2018-05-09T16:46:42.110Z,3.00
2018-05-09T16:49:10.456Z,3.03
2018-05-09T16:51:39.560Z,2.90
2018-05-09T16:54:07.837Z,3.03
2018-05-09T16:56:36.117Z,3.20
2018-05-09T16:59:04.817Z,3.57
2018-05-09T17:01:33.480Z,2.93
2018-05-09T17:04:02.521Z,3.20
2018-05-09T17:06:32.263Z,3.60
2018-05-09T17:09:01.352Z,5.50
2018-05-09T17:11:30.072Z,3.43
2018-05-09T17:13:58.543Z,2.83
2018-05-09T17:16:27.037Z,3.27
2018-05-09T17:18:55.634Z,3.50
2018-05-09T17:21:37.442Z,3.73
2018-05-09T17:24:06.552Z,3.47
2018-05-09T17:26:35.366Z,3.30
2018-05-09T17:29:04.359Z,3.73
2018-05-09T17:31:33.670Z,3.30
2018-05-09T17:34:02.317Z,3.67
2018-05-09T17:36:31.783Z,3.60
2018-05-09T17:39:00.808Z,3.20
2018-05-09T17:41:29.494Z,4.17
2018-05-09T17:43:58.069Z,4.50
2018-05-09T17:46:27.678Z,4.30
2018-05-09T17:48:56.001Z,4.10
2018-05-09T17:51:24.590Z,4.50
2018-05-09T17:53:52.865Z,4.20
2018-05-09T17:56:21.184Z,3.40
2018-05-09T17:58:49.664Z,4.00
2018-05-09T18:01:17.954Z,3.30
2018-05-09T18:03:46.233Z,3.40
2018-05-09T18:06:15.767Z,3.67
2018-05-09T18:08:44.049Z,4.07
2018-05-09T18:11:12.761Z,3.30
2018-05-09T18:13:41.097Z,3.80
2018-05-09T18:16:09.436Z,3.93
2018-05-09T18:18:37.833Z,3.47
2018-05-09T18:21:06.113Z,4.20
2018-05-09T18:23:34.400Z,4.00
2018-05-09T18:26:02.792Z,3.77
2018-05-09T18:28:31.393Z,4.43
2018-05-09T18:30:59.677Z,3.87
2018-05-09T18:33:27.973Z,4.20
2018-05-09T18:35:56.304Z,4.70
2018-05-09T18:38:24.589Z,4.23
2018-05-09T18:40:53.862Z,6.03
2018-05-09T18:43:22.141Z,4.43
2018-05-09T18:45:50.429Z,4.50
2018-05-09T18:48:18.829Z,4.93
2018-05-09T18:50:47.177Z,4.20
2018-05-09T18:53:15.646Z,7.33
2018-05-09T18:55:44.705Z,4.10
2018-05-09T18:58:13.801Z,4.43
2018-05-09T19:00:42.107Z,4.80
2018-05-09T19:03:10.449Z,5.60
2018-05-09T19:05:39.500Z,5.93
2018-05-09T19:08:07.845Z,5.93
2018-05-09T19:10:36.893Z,5.57
2018-05-09T19:13:05.181Z,5.70
2018-05-09T19:15:33.517Z,5.90
2018-05-09T19:18:02.573Z,5.33
2018-05-09T19:20:30.996Z,6.57
2018-05-09T19:22:59.346Z,5.10
2018-05-09T19:25:27.701Z,4.70
2018-05-09T19:27:56.747Z,6.77
2018-05-09T19:30:25.089Z,5.80
2018-05-09T19:32:54.784Z,7.03
2018-05-09T19:35:23.065Z,5.60
2018-05-09T19:37:51.650Z,5.57
2018-05-09T19:40:19.930Z,7.43
2018-05-09T19:42:48.220Z,6.03
2018-05-09T19:45:16.644Z,7.50
2018-05-09T19:47:45.058Z,5.63
2018-05-09T19:50:13.300Z,6.10
2018-05-09T19:52:41.653Z,6.37
2018-05-09T19:55:10.715Z,5.70
2018-05-09T19:57:38.997Z,6.10
2018-05-09T20:00:07.345Z,5.93
2018-05-09T20:02:36.503Z,6.17
2018-05-09T20:05:04.895Z,5.07
2018-05-09T20:07:33.234Z,6.33
2018-05-09T20:10:01.521Z,5.90
2018-05-09T20:12:30.647Z,7.00
2018-05-09T20:14:58.925Z,6.80
2018-05-09T20:17:27.268Z,5.67
2018-05-09T20:19:55.550Z,6.50
2018-05-09T20:22:23.901Z,7.20
2018-05-09T20:24:52.208Z,7.13
2018-05-09T20:27:20.628Z,8.00
2018-05-09T20:29:49.022Z,8.07
2018-05-09T20:32:29.084Z,6.73
2018-05-09T20:34:57.423Z,8.03
2018-05-09T20:37:25.708Z,6.80
2018-05-09T20:39:54.069Z,8.50
2018-05-09T20:42:22.366Z,8.53
2018-05-09T20:44:50.788Z,9.30
2018-05-09T20:47:19.219Z,8.83
2018-05-09T20:49:47.520Z,8.20
2018-05-09T20:52:16.270Z,8.07
2018-05-09T20:54:44.605Z,10.33
2018-05-09T20:57:13.310Z,8.80
2018-05-09T20:59:41.601Z,9.13
2018-05-09T21:02:09.889Z,8.63
2018-05-09T21:04:38.446Z,9.60
2018-05-09T21:07:07.541Z,7.93
2018-05-09T21:09:35.905Z,8.30
2018-05-09T21:12:09.244Z,8.17
2018-05-09T21:14:38.448Z,7.33
2018-05-09T21:17:06.985Z,8.10
2018-05-09T21:19:35.491Z,9.23
2018-05-09T21:22:03.892Z,6.93
2018-05-09T21:24:33.062Z,7.23
2018-05-09T21:27:01.937Z,6.93
2018-05-09T21:29:30.309Z,7.37
2018-05-09T21:31:58.592Z,7.40
2018-05-09T21:34:28.621Z,7.00
2018-05-09T21:36:57.829Z,6.73
2018-05-09T21:39:26.213Z,7.20
2018-05-09T21:41:54.541Z,7.73
2018-05-09T21:44:23.590Z,8.50
2018-05-09T21:46:51.929Z,6.40
2018-05-09T21:49:21.001Z,7.97
2018-05-09T21:51:49.337Z,6.73
2018-05-09T21:54:18.385Z,7.07
2018-05-09T21:56:47.102Z,6.73
2018-05-09T21:59:15.385Z,6.90
2018-05-09T22:01:43.673Z,7.33
2018-05-09T22:04:12.009Z,7.40
2018-05-09T22:06:41.061Z,7.37
2018-05-09T22:09:09.373Z,7.00
2018-05-09T22:11:37.757Z,7.07
2018-05-09T22:14:06.161Z,6.90
2018-05-09T22:16:34.498Z,7.80
2018-05-09T22:19:02.927Z,6.47
2018-05-09T22:21:31.269Z,7.27
2018-05-09T22:23:59.551Z,6.67
2018-05-09T22:26:28.644Z,7.67
2018-05-09T22:28:57.728Z,7.37
2018-05-09T22:31:26.066Z,7.53
2018-05-09T22:33:54.345Z,7.40
2018-05-09T22:36:23.399Z,6.47
2018-05-09T22:38:51.729Z,6.90
2018-05-09T22:41:20.792Z,7.60
2018-05-09T22:43:49.191Z,6.80
2018-05-09T22:46:17.666Z,6.70
2018-05-09T22:48:45.985Z,7.30
2018-05-09T22:51:14.269Z,6.97
2018-05-09T22:53:42.622Z,7.83
2018-05-09T22:56:10.917Z,7.17
2018-05-09T22:58:39.268Z,7.87
2018-05-09T23:01:07.553Z,6.80
2018-05-09T23:03:35.841Z,7.60
2018-05-09T23:06:04.185Z,7.00
2018-05-09T23:08:32.472Z,8.20
2018-05-09T23:11:00.804Z,7.67
2018-05-09T23:13:29.093Z,7.07
2018-05-09T23:15:58.208Z,7.57
2018-05-09T23:18:26.488Z,7.37
2018-05-09T23:20:54.865Z,6.77
2018-05-09T23:23:23.146Z,7.10
2018-05-09T23:25:51.429Z,7.57
2018-05-09T23:28:20.044Z,8.20
2018-05-09T23:30:48.321Z,7.40
2018-05-09T23:33:16.601Z,7.40
2018-05-09T23:35:44.940Z,7.93
2018-05-09T23:38:14.119Z,8.00
2018-05-09T23:40:42.466Z,7.50
2018-05-09T23:43:10.713Z,6.73
2018-05-09T23:45:39.045Z,8.23
2018-05-09T23:48:07.399Z,7.73
2018-05-09T23:50:35.685Z,7.23
2018-05-09T23:53:04.022Z,7.30
2018-05-09T23:55:32.448Z,7.20
2018-05-09T23:58:01.469Z,8.30
